sensor_id;sensor_type;location;lat;lon;timestamp;temperature;humidity
24326;DHT22;12448;45.532;5.290;2022-07-23T00:01:31;27.00;55.40
24326;DHT22;12448;45.532;5.290;2022-07-23T00:03:57;27.00;55.20
24326;DHT22;12448;45.532;5.290;2022-07-23T00:06:24;27.00;55.50
24326;DHT22;12448;45.532;5.290;2022-07-23T00:08:50;26.80;55.50
24326;DHT22;12448;45.532;5.290;2022-07-23T00:11:17;26.60;55.70
24326;DHT22;12448;45.532;5.290;2022-07-23T00:13:43;26.60;55.90
24326;DHT22;12448;45.532;5.290;2022-07-23T00:16:09;26.70;55.60
24326;DHT22;12448;45.532;5.290;2022-07-23T00:18:35;26.80;55.60
24326;DHT22;12448;45.532;5.290;2022-07-23T00:21:00;26.80;55.40
24326;DHT22;12448;45.532;5.290;2022-07-23T00:23:26;26.90;55.30
24326;DHT22;12448;45.532;5.290;2022-07-23T00:25:53;26.90;55.30
24326;DHT22;12448;45.532;5.290;2022-07-23T00:28:19;26.90;55.40
24326;DHT22;12448;45.532;5.290;2022-07-23T00:30:45;26.90;55.50
24326;DHT22;12448;45.532;5.290;2022-07-23T00:33:11;26.80;55.70
24326;DHT22;12448;45.532;5.290;2022-07-23T00:35:38;26.30;56.10
24326;DHT22;12448;45.532;5.290;2022-07-23T00:38:07;26.00;56.70
24326;DHT22;12448;45.532;5.290;2022-07-23T00:40:33;25.70;57.20
24326;DHT22;12448;45.532;5.290;2022-07-23T00:43:00;25.70;57.40
24326;DHT22;12448;45.532;5.290;2022-07-23T00:45:26;25.90;57.30
24326;DHT22;12448;45.532;5.290;2022-07-23T00:47:52;26.00;57.10
24326;DHT22;12448;45.532;5.290;2022-07-23T00:50:18;26.10;57.10
24326;DHT22;12448;45.532;5.290;2022-07-23T00:52:44;26.10;57.00
24326;DHT22;12448;45.532;5.290;2022-07-23T00:55:11;26.20;56.90
24326;DHT22;12448;45.532;5.290;2022-07-23T00:57:38;26.30;56.90
24326;DHT22;12448;45.532;5.290;2022-07-23T01:00:05;26.40;56.90
24326;DHT22;12448;45.532;5.290;2022-07-23T01:02:31;26.50;57.20
24326;DHT22;12448;45.532;5.290;2022-07-23T01:04:57;26.60;57.60
24326;DHT22;12448;45.532;5.290;2022-07-23T01:07:23;26.60;58.20
24326;DHT22;12448;45.532;5.290;2022-07-23T01:09:49;26.60;58.90
24326;DHT22;12448;45.532;5.290;2022-07-23T01:12:16;26.30;60.10
24326;DHT22;12448;45.532;5.290;2022-07-23T01:14:41;25.80;61.40
24326;DHT22;12448;45.532;5.290;2022-07-23T01:17:07;25.60;62.00
24326;DHT22;12448;45.532;5.290;2022-07-23T01:19:33;25.70;62.50
24326;DHT22;12448;45.532;5.290;2022-07-23T01:22:01;25.80;62.50
24326;DHT22;12448;45.532;5.290;2022-07-23T01:24:27;25.90;62.80
24326;DHT22;12448;45.532;5.290;2022-07-23T01:26:53;25.60;63.90
24326;DHT22;12448;45.532;5.290;2022-07-23T01:29:18;25.30;64.60
24326;DHT22;12448;45.532;5.290;2022-07-23T01:31:46;25.10;65.20
24326;DHT22;12448;45.532;5.290;2022-07-23T01:34:13;25.10;65.30
24326;DHT22;12448;45.532;5.290;2022-07-23T01:36:39;25.10;65.60
24326;DHT22;12448;45.532;5.290;2022-07-23T01:39:06;25.00;64.90
24326;DHT22;12448;45.532;5.290;2022-07-23T01:41:32;25.10;64.70
24326;DHT22;12448;45.532;5.290;2022-07-23T01:43:58;25.10;64.70
24326;DHT22;12448;45.532;5.290;2022-07-23T01:46:23;25.20;64.50
24326;DHT22;12448;45.532;5.290;2022-07-23T01:48:49;25.30;64.30
24326;DHT22;12448;45.532;5.290;2022-07-23T01:51:15;25.30;64.30
24326;DHT22;12448;45.532;5.290;2022-07-23T01:53:41;25.40;64.40
24326;DHT22;12448;45.532;5.290;2022-07-23T01:56:07;25.40;64.50
24326;DHT22;12448;45.532;5.290;2022-07-23T01:58:33;25.40;64.70
24326;DHT22;12448;45.532;5.290;2022-07-23T02:00:59;25.40;64.70
24326;DHT22;12448;45.532;5.290;2022-07-23T02:03:25;25.10;64.40
24326;DHT22;12448;45.532;5.290;2022-07-23T02:05:50;25.50;64.70
24326;DHT22;12448;45.532;5.290;2022-07-23T02:08:17;25.50;64.40
24326;DHT22;12448;45.532;5.290;2022-07-23T02:10:43;25.50;64.10
24326;DHT22;12448;45.532;5.290;2022-07-23T02:13:08;25.60;64.10
24326;DHT22;12448;45.532;5.290;2022-07-23T02:15:34;25.50;63.60
24326;DHT22;12448;45.532;5.290;2022-07-23T02:18:00;25.50;63.70
24326;DHT22;12448;45.532;5.290;2022-07-23T02:20:26;25.30;63.80
24326;DHT22;12448;45.532;5.290;2022-07-23T02:22:52;25.30;64.30
24326;DHT22;12448;45.532;5.290;2022-07-23T02:25:17;25.20;65.00
24326;DHT22;12448;45.532;5.290;2022-07-23T02:27:43;25.00;66.20
24326;DHT22;12448;45.532;5.290;2022-07-23T02:30:09;24.80;67.30
24326;DHT22;12448;45.532;5.290;2022-07-23T02:32:35;24.70;67.60
24326;DHT22;12448;45.532;5.290;2022-07-23T02:35:02;24.70;67.90
24326;DHT22;12448;45.532;5.290;2022-07-23T02:37:28;24.80;68.00
24326;DHT22;12448;45.532;5.290;2022-07-23T02:39:54;24.90;69.20
24326;DHT22;12448;45.532;5.290;2022-07-23T02:42:19;24.80;70.10
24326;DHT22;12448;45.532;5.290;2022-07-23T02:44:45;24.50;70.20
24326;DHT22;12448;45.532;5.290;2022-07-23T02:47:11;24.20;71.80
24326;DHT22;12448;45.532;5.290;2022-07-23T02:49:36;24.00;73.00
24326;DHT22;12448;45.532;5.290;2022-07-23T02:52:02;23.70;73.30
24326;DHT22;12448;45.532;5.290;2022-07-23T02:54:28;23.70;73.70
24326;DHT22;12448;45.532;5.290;2022-07-23T02:56:54;23.80;73.60
24326;DHT22;12448;45.532;5.290;2022-07-23T02:59:19;23.80;73.70
24326;DHT22;12448;45.532;5.290;2022-07-23T03:01:45;24.00;73.90
24326;DHT22;12448;45.532;5.290;2022-07-23T03:04:11;24.20;73.20
24326;DHT22;12448;45.532;5.290;2022-07-23T03:06:37;24.30;72.60
24326;DHT22;12448;45.532;5.290;2022-07-23T03:09:04;24.30;71.70
24326;DHT22;12448;45.532;5.290;2022-07-23T03:11:30;23.90;70.60
24326;DHT22;12448;45.532;5.290;2022-07-23T03:13:55;24.10;70.70
24326;DHT22;12448;45.532;5.290;2022-07-23T03:16:21;24.00;71.00
24326;DHT22;12448;45.532;5.290;2022-07-23T03:18:47;24.10;71.50
24326;DHT22;12448;45.532;5.290;2022-07-23T03:21:12;24.20;70.80
24326;DHT22;12448;45.532;5.290;2022-07-23T03:23:38;24.20;69.60
24326;DHT22;12448;45.532;5.290;2022-07-23T03:26:04;24.10;69.40
24326;DHT22;12448;45.532;5.290;2022-07-23T03:28:29;23.90;69.00
24326;DHT22;12448;45.532;5.290;2022-07-23T03:30:56;23.60;71.00
24326;DHT22;12448;45.532;5.290;2022-07-23T03:33:22;23.30;72.90
24326;DHT22;12448;45.532;5.290;2022-07-23T03:35:48;23.10;72.30
24326;DHT22;12448;45.532;5.290;2022-07-23T03:38:14;22.90;73.10
24326;DHT22;12448;45.532;5.290;2022-07-23T03:40:40;22.90;73.10
24326;DHT22;12448;45.532;5.290;2022-07-23T03:43:11;22.90;72.30
24326;DHT22;12448;45.532;5.290;2022-07-23T03:45:40;22.80;71.40
24326;DHT22;12448;45.532;5.290;2022-07-23T03:48:05;22.90;71.00
24326;DHT22;12448;45.532;5.290;2022-07-23T03:50:31;22.80;71.10
24326;DHT22;12448;45.532;5.290;2022-07-23T03:52:57;22.70;71.60
24326;DHT22;12448;45.532;5.290;2022-07-23T03:55:26;22.60;72.20
24326;DHT22;12448;45.532;5.290;2022-07-23T03:57:54;22.50;72.00
24326;DHT22;12448;45.532;5.290;2022-07-23T04:00:23;22.40;72.50
24326;DHT22;12448;45.532;5.290;2022-07-23T04:03:02;22.20;73.00
24326;DHT22;12448;45.532;5.290;2022-07-23T04:05:42;22.20;73.60
24326;DHT22;12448;45.532;5.290;2022-07-23T04:08:24;22.20;74.30
24326;DHT22;12448;45.532;5.290;2022-07-23T04:10:55;22.20;74.50
24326;DHT22;12448;45.532;5.290;2022-07-23T04:13:21;22.10;74.70
24326;DHT22;12448;45.532;5.290;2022-07-23T04:19:18;22.10;75.10
24326;DHT22;12448;45.532;5.290;2022-07-23T04:21:44;22.10;75.30
24326;DHT22;12448;45.532;5.290;2022-07-23T04:24:15;22.20;75.30
24326;DHT22;12448;45.532;5.290;2022-07-23T04:29:39;22.30;74.90
24326;DHT22;12448;45.532;5.290;2022-07-23T04:32:05;22.50;74.50
24326;DHT22;12448;45.532;5.290;2022-07-23T04:34:34;22.80;74.00
24326;DHT22;12448;45.532;5.290;2022-07-23T04:36:59;23.00;73.20
24326;DHT22;12448;45.532;5.290;2022-07-23T04:39:25;23.20;72.50
24326;DHT22;12448;45.532;5.290;2022-07-23T04:41:51;23.30;71.70
24326;DHT22;12448;45.532;5.290;2022-07-23T04:44:17;23.40;71.30
24326;DHT22;12448;45.532;5.290;2022-07-23T04:46:42;23.20;70.60
24326;DHT22;12448;45.532;5.290;2022-07-23T04:49:11;22.90;71.00
24326;DHT22;12448;45.532;5.290;2022-07-23T04:51:37;22.70;71.90
24326;DHT22;12448;45.532;5.290;2022-07-23T04:54:03;22.60;72.00
24326;DHT22;12448;45.532;5.290;2022-07-23T04:56:31;22.60;72.50
24326;DHT22;12448;45.532;5.290;2022-07-23T04:58:57;22.80;72.70
24326;DHT22;12448;45.532;5.290;2022-07-23T05:01:23;23.00;72.40
24326;DHT22;12448;45.532;5.290;2022-07-23T05:03:48;23.10;71.60
24326;DHT22;12448;45.532;5.290;2022-07-23T05:06:15;23.30;70.30
24326;DHT22;12448;45.532;5.290;2022-07-23T05:08:40;23.30;69.30
24326;DHT22;12448;45.532;5.290;2022-07-23T05:11:06;23.40;68.80
24326;DHT22;12448;45.532;5.290;2022-07-23T05:13:32;23.40;68.50
24326;DHT22;12448;45.532;5.290;2022-07-23T05:15:57;23.40;68.50
24326;DHT22;12448;45.532;5.290;2022-07-23T05:18:23;23.30;68.50
24326;DHT22;12448;45.532;5.290;2022-07-23T05:20:48;23.30;68.70
24326;DHT22;12448;45.532;5.290;2022-07-23T05:23:14;23.40;69.00
24326;DHT22;12448;45.532;5.290;2022-07-23T05:25:40;23.50;69.20
24326;DHT22;12448;45.532;5.290;2022-07-23T05:28:06;24.00;69.30
24326;DHT22;12448;45.532;5.290;2022-07-23T05:30:32;23.70;68.70
24326;DHT22;12448;45.532;5.290;2022-07-23T05:32:57;23.80;68.40
24326;DHT22;12448;45.532;5.290;2022-07-23T05:35:23;23.90;68.30
24326;DHT22;12448;45.532;5.290;2022-07-23T05:37:49;23.90;68.40
24326;DHT22;12448;45.532;5.290;2022-07-23T05:40:14;24.00;68.50
24326;DHT22;12448;45.532;5.290;2022-07-23T05:42:40;24.00;68.30
24326;DHT22;12448;45.532;5.290;2022-07-23T05:45:08;24.10;68.00
24326;DHT22;12448;45.532;5.290;2022-07-23T05:47:43;24.10;67.90
24326;DHT22;12448;45.532;5.290;2022-07-23T05:50:10;24.10;67.90
24326;DHT22;12448;45.532;5.290;2022-07-23T05:52:35;24.00;67.90
24326;DHT22;12448;45.532;5.290;2022-07-23T05:55:01;24.00;67.80
24326;DHT22;12448;45.532;5.290;2022-07-23T05:57:28;23.90;68.00
24326;DHT22;12448;45.532;5.290;2022-07-23T05:59:54;23.80;68.00
24326;DHT22;12448;45.532;5.290;2022-07-23T06:02:19;23.70;68.30
24326;DHT22;12448;45.532;5.290;2022-07-23T06:04:45;23.60;68.80
24326;DHT22;12448;45.532;5.290;2022-07-23T06:07:11;23.50;69.50
24326;DHT22;12448;45.532;5.290;2022-07-23T06:09:37;23.50;69.50
24326;DHT22;12448;45.532;5.290;2022-07-23T06:12:03;23.50;69.80
24326;DHT22;12448;45.532;5.290;2022-07-23T06:14:28;23.40;69.90
24326;DHT22;12448;45.532;5.290;2022-07-23T06:16:54;23.40;70.00
24326;DHT22;12448;45.532;5.290;2022-07-23T06:19:20;23.40;69.40
24326;DHT22;12448;45.532;5.290;2022-07-23T06:21:45;23.40;69.70
24326;DHT22;12448;45.532;5.290;2022-07-23T06:24:11;23.40;70.20
24326;DHT22;12448;45.532;5.290;2022-07-23T06:26:37;23.40;70.20
24326;DHT22;12448;45.532;5.290;2022-07-23T06:29:02;23.40;70.40
24326;DHT22;12448;45.532;5.290;2022-07-23T06:31:28;23.40;70.90
24326;DHT22;12448;45.532;5.290;2022-07-23T06:33:54;23.50;70.80
24326;DHT22;12448;45.532;5.290;2022-07-23T06:36:20;23.50;70.80
24326;DHT22;12448;45.532;5.290;2022-07-23T06:38:45;23.50;70.90
24326;DHT22;12448;45.532;5.290;2022-07-23T06:41:11;23.40;71.00
24326;DHT22;12448;45.532;5.290;2022-07-23T06:43:37;23.40;71.30
24326;DHT22;12448;45.532;5.290;2022-07-23T06:46:03;23.40;71.60
24326;DHT22;12448;45.532;5.290;2022-07-23T06:48:28;23.30;71.80
24326;DHT22;12448;45.532;5.290;2022-07-23T06:50:54;23.30;72.00
24326;DHT22;12448;45.532;5.290;2022-07-23T06:53:20;23.40;72.10
24326;DHT22;12448;45.532;5.290;2022-07-23T06:55:46;23.30;72.10
24326;DHT22;12448;45.532;5.290;2022-07-23T06:58:12;23.40;71.90
24326;DHT22;12448;45.532;5.290;2022-07-23T07:00:39;23.40;71.10
24326;DHT22;12448;45.532;5.290;2022-07-23T07:03:05;23.50;71.30
24326;DHT22;12448;45.532;5.290;2022-07-23T07:05:31;23.50;71.50
24326;DHT22;12448;45.532;5.290;2022-07-23T07:07:56;23.50;70.60
24326;DHT22;12448;45.532;5.290;2022-07-23T07:10:23;23.50;70.40
24326;DHT22;12448;45.532;5.290;2022-07-23T07:12:48;23.50;70.30
24326;DHT22;12448;45.532;5.290;2022-07-23T07:15:14;23.50;70.00
24326;DHT22;12448;45.532;5.290;2022-07-23T07:17:40;23.50;70.20
24326;DHT22;12448;45.532;5.290;2022-07-23T07:20:08;23.70;70.00
24326;DHT22;12448;45.532;5.290;2022-07-23T07:22:34;23.70;70.20
24326;DHT22;12448;45.532;5.290;2022-07-23T07:24:59;23.80;70.10
24326;DHT22;12448;45.532;5.290;2022-07-23T07:27:25;23.80;69.90
24326;DHT22;12448;45.532;5.290;2022-07-23T07:29:50;23.80;70.20
24326;DHT22;12448;45.532;5.290;2022-07-23T07:32:16;23.80;70.10
24326;DHT22;12448;45.532;5.290;2022-07-23T07:34:42;23.70;70.40
24326;DHT22;12448;45.532;5.290;2022-07-23T07:37:08;23.80;70.70
24326;DHT22;12448;45.532;5.290;2022-07-23T07:39:34;23.70;70.80
24326;DHT22;12448;45.532;5.290;2022-07-23T07:41:59;23.80;71.00
24326;DHT22;12448;45.532;5.290;2022-07-23T07:44:25;23.90;71.00
24326;DHT22;12448;45.532;5.290;2022-07-23T07:46:51;23.90;70.40
24326;DHT22;12448;45.532;5.290;2022-07-23T07:49:17;23.90;70.60
24326;DHT22;12448;45.532;5.290;2022-07-23T07:51:45;24.00;70.50
24326;DHT22;12448;45.532;5.290;2022-07-23T07:54:11;24.10;70.70
24326;DHT22;12448;45.532;5.290;2022-07-23T07:56:37;24.10;70.40
24326;DHT22;12448;45.532;5.290;2022-07-23T07:59:02;24.10;69.80
24326;DHT22;12448;45.532;5.290;2022-07-23T08:01:28;24.10;69.40
24326;DHT22;12448;45.532;5.290;2022-07-23T08:03:54;24.10;69.50
24326;DHT22;12448;45.532;5.290;2022-07-23T08:06:19;24.20;69.70
24326;DHT22;12448;45.532;5.290;2022-07-23T08:08:45;24.20;69.30
24326;DHT22;12448;45.532;5.290;2022-07-23T08:11:11;24.10;69.60
24326;DHT22;12448;45.532;5.290;2022-07-23T08:13:36;24.20;70.10
24326;DHT22;12448;45.532;5.290;2022-07-23T08:16:02;24.30;69.80
24326;DHT22;12448;45.532;5.290;2022-07-23T08:18:28;24.30;70.70
24326;DHT22;12448;45.532;5.290;2022-07-23T08:20:53;24.40;70.20
24326;DHT22;12448;45.532;5.290;2022-07-23T08:23:19;24.30;70.00
24326;DHT22;12448;45.532;5.290;2022-07-23T08:25:45;24.20;70.40
24326;DHT22;12448;45.532;5.290;2022-07-23T08:28:13;24.10;70.10
24326;DHT22;12448;45.532;5.290;2022-07-23T08:30:41;24.10;70.40
24326;DHT22;12448;45.532;5.290;2022-07-23T08:33:11;24.10;70.50
24326;DHT22;12448;45.532;5.290;2022-07-23T08:35:40;24.10;70.90
24326;DHT22;12448;45.532;5.290;2022-07-23T08:38:09;24.20;70.70
24326;DHT22;12448;45.532;5.290;2022-07-23T08:40:40;24.30;70.20
24326;DHT22;12448;45.532;5.290;2022-07-23T08:43:08;24.30;69.10
24326;DHT22;12448;45.532;5.290;2022-07-23T08:45:38;24.40;69.30
24326;DHT22;12448;45.532;5.290;2022-07-23T08:48:09;24.50;69.80
24326;DHT22;12448;45.532;5.290;2022-07-23T08:50:36;24.50;69.40
24326;DHT22;12448;45.532;5.290;2022-07-23T08:53:05;24.50;70.00
24326;DHT22;12448;45.532;5.290;2022-07-23T08:55:31;24.40;69.30
24326;DHT22;12448;45.532;5.290;2022-07-23T08:57:57;24.40;69.80
24326;DHT22;12448;45.532;5.290;2022-07-23T09:00:23;24.40;69.20
24326;DHT22;12448;45.532;5.290;2022-07-23T09:02:49;24.40;69.00
24326;DHT22;12448;45.532;5.290;2022-07-23T09:05:16;24.50;69.20
24326;DHT22;12448;45.532;5.290;2022-07-23T09:08:07;24.40;69.30
24326;DHT22;12448;45.532;5.290;2022-07-23T09:10:54;24.50;68.30
24326;DHT22;12448;45.532;5.290;2022-07-23T09:16:04;24.70;70.20
24326;DHT22;12448;45.532;5.290;2022-07-23T09:18:38;24.70;68.90
24326;DHT22;12448;45.532;5.290;2022-07-23T09:21:15;24.90;68.70
24326;DHT22;12448;45.532;5.290;2022-07-23T09:23:43;24.90;68.70
24326;DHT22;12448;45.532;5.290;2022-07-23T09:28:59;25.10;68.60
24326;DHT22;12448;45.532;5.290;2022-07-23T09:31:32;25.10;67.50
24326;DHT22;12448;45.532;5.290;2022-07-23T09:34:23;25.30;67.30
24326;DHT22;12448;45.532;5.290;2022-07-23T09:36:51;25.10;65.20
24326;DHT22;12448;45.532;5.290;2022-07-23T09:39:28;25.50;64.70
24326;DHT22;12448;45.532;5.290;2022-07-23T09:41:54;25.60;64.80
24326;DHT22;12448;45.532;5.290;2022-07-23T09:44:21;25.60;65.10
24326;DHT22;12448;45.532;5.290;2022-07-23T09:46:48;25.70;64.90
24326;DHT22;12448;45.532;5.290;2022-07-23T09:49:22;25.80;64.20
24326;DHT22;12448;45.532;5.290;2022-07-23T09:51:53;25.80;63.90
24326;DHT22;12448;45.532;5.290;2022-07-23T09:54:29;25.70;64.30
24326;DHT22;12448;45.532;5.290;2022-07-23T09:57:00;25.70;63.80
24326;DHT22;12448;45.532;5.290;2022-07-23T09:59:29;25.60;64.20
24326;DHT22;12448;45.532;5.290;2022-07-23T10:01:57;25.50;64.50
24326;DHT22;12448;45.532;5.290;2022-07-23T10:04:25;25.40;63.90
24326;DHT22;12448;45.532;5.290;2022-07-23T10:06:53;25.40;65.00
24326;DHT22;12448;45.532;5.290;2022-07-23T10:09:27;25.50;65.30
24326;DHT22;12448;45.532;5.290;2022-07-23T10:11:56;25.50;64.60
24326;DHT22;12448;45.532;5.290;2022-07-23T10:14:30;25.60;64.90
24326;DHT22;12448;45.532;5.290;2022-07-23T10:16:58;25.70;65.70
24326;DHT22;12448;45.532;5.290;2022-07-23T10:19:25;25.80;64.60
24326;DHT22;12448;45.532;5.290;2022-07-23T10:22:42;26.00;63.40
24326;DHT22;12448;45.532;5.290;2022-07-23T10:30:22;26.30;63.80
24326;DHT22;12448;45.532;5.290;2022-07-23T10:39:18;25.90;62.80
24326;DHT22;12448;45.532;5.290;2022-07-23T10:41:39;25.80;63.10
24326;DHT22;12448;45.532;5.290;2022-07-23T10:44:09;25.70;62.40
24326;DHT22;12448;45.532;5.290;2022-07-23T10:46:35;25.60;62.40
24326;DHT22;12448;45.532;5.290;2022-07-23T10:49:25;25.70;62.30
24326;DHT22;12448;45.532;5.290;2022-07-23T10:54:39;25.90;63.00
24326;DHT22;12448;45.532;5.290;2022-07-23T10:57:10;26.00;62.80
24326;DHT22;12448;45.532;5.290;2022-07-23T11:02:44;26.20;60.50
24326;DHT22;12448;45.532;5.290;2022-07-23T11:05:14;26.10;61.50
24326;DHT22;12448;45.532;5.290;2022-07-23T11:16:08;26.40;62.10
24326;DHT22;12448;45.532;5.290;2022-07-23T11:34:40;26.20;61.60
24326;DHT22;12448;45.532;5.290;2022-07-23T11:37:10;26.30;60.50
24326;DHT22;12448;45.532;5.290;2022-07-23T11:39:37;26.40;60.80
24326;DHT22;12448;45.532;5.290;2022-07-23T11:42:06;26.60;61.10
24326;DHT22;12448;45.532;5.290;2022-07-23T11:44:40;26.60;60.10
24326;DHT22;12448;45.532;5.290;2022-07-23T11:47:08;26.70;60.60
24326;DHT22;12448;45.532;5.290;2022-07-23T11:49:35;26.80;60.70
24326;DHT22;12448;45.532;5.290;2022-07-23T11:52:12;26.90;59.70
24326;DHT22;12448;45.532;5.290;2022-07-23T11:57:18;26.70;60.20
24326;DHT22;12448;45.532;5.290;2022-07-23T11:59:46;26.60;60.30
24326;DHT22;12448;45.532;5.290;2022-07-23T12:02:12;26.50;60.00
24326;DHT22;12448;45.532;5.290;2022-07-23T12:04:46;26.50;60.20
24326;DHT22;12448;45.532;5.290;2022-07-23T12:09:49;26.60;60.20
24326;DHT22;12448;45.532;5.290;2022-07-23T12:12:15;26.70;60.00
24326;DHT22;12448;45.532;5.290;2022-07-23T12:14:48;26.70;59.80
24326;DHT22;12448;45.532;5.290;2022-07-23T12:17:14;26.70;59.90
24326;DHT22;12448;45.532;5.290;2022-07-23T12:19:40;26.60;60.10
24326;DHT22;12448;45.532;5.290;2022-07-23T12:22:07;26.60;60.20
24326;DHT22;12448;45.532;5.290;2022-07-23T12:25:10;26.50;60.20
24326;DHT22;12448;45.532;5.290;2022-07-23T12:27:36;26.70;60.90
24326;DHT22;12448;45.532;5.290;2022-07-23T12:30:20;26.70;59.80
24326;DHT22;12448;45.532;5.290;2022-07-23T12:32:47;26.90;60.20
24326;DHT22;12448;45.532;5.290;2022-07-23T12:35:13;27.10;60.30
24326;DHT22;12448;45.532;5.290;2022-07-23T12:37:41;27.30;59.80
24326;DHT22;12448;45.532;5.290;2022-07-23T12:40:26;27.30;59.60
24326;DHT22;12448;45.532;5.290;2022-07-23T12:45:20;26.90;58.60
24326;DHT22;12448;45.532;5.290;2022-07-23T12:50:43;26.90;58.50
24326;DHT22;12448;45.532;5.290;2022-07-23T12:53:15;26.90;58.00
24326;DHT22;12448;45.532;5.290;2022-07-23T12:55:42;27.00;57.80
24326;DHT22;12448;45.532;5.290;2022-07-23T12:58:19;27.20;57.00
24326;DHT22;12448;45.532;5.290;2022-07-23T13:03:44;27.40;56.20
24326;DHT22;12448;45.532;5.290;2022-07-23T13:06:19;27.40;56.30
24326;DHT22;12448;45.532;5.290;2022-07-23T13:08:45;27.30;56.10
24326;DHT22;12448;45.532;5.290;2022-07-23T13:11:10;27.30;56.40
24326;DHT22;12448;45.532;5.290;2022-07-23T13:13:36;27.40;56.80
24326;DHT22;12448;45.532;5.290;2022-07-23T13:16:02;27.40;57.10
24326;DHT22;12448;45.532;5.290;2022-07-23T13:18:29;27.40;57.20
24326;DHT22;12448;45.532;5.290;2022-07-23T13:20:55;27.50;57.20
24326;DHT22;12448;45.532;5.290;2022-07-23T13:23:21;27.60;57.30
24326;DHT22;12448;45.532;5.290;2022-07-23T13:25:48;27.70;57.10
24326;DHT22;12448;45.532;5.290;2022-07-23T13:28:14;27.80;56.80
24326;DHT22;12448;45.532;5.290;2022-07-23T13:30:41;27.60;57.30
24326;DHT22;12448;45.532;5.290;2022-07-23T13:33:07;27.60;57.10
24326;DHT22;12448;45.532;5.290;2022-07-23T13:35:34;27.60;57.30
24326;DHT22;12448;45.532;5.290;2022-07-23T13:38:00;27.70;57.40
24326;DHT22;12448;45.532;5.290;2022-07-23T13:40:26;27.70;57.00
24326;DHT22;12448;45.532;5.290;2022-07-23T13:42:51;27.80;57.00
24326;DHT22;12448;45.532;5.290;2022-07-23T13:45:17;27.80;56.60
24326;DHT22;12448;45.532;5.290;2022-07-23T13:47:43;27.80;57.10
24326;DHT22;12448;45.532;5.290;2022-07-23T13:50:09;27.80;57.20
24326;DHT22;12448;45.532;5.290;2022-07-23T13:52:34;27.80;57.30
24326;DHT22;12448;45.532;5.290;2022-07-23T13:55:02;27.90;57.40
24326;DHT22;12448;45.532;5.290;2022-07-23T13:57:29;27.90;57.10
24326;DHT22;12448;45.532;5.290;2022-07-23T13:59:55;28.00;57.00
24326;DHT22;12448;45.532;5.290;2022-07-23T14:02:20;28.00;56.60
24326;DHT22;12448;45.532;5.290;2022-07-23T14:04:46;28.00;56.90
24326;DHT22;12448;45.532;5.290;2022-07-23T14:07:12;28.20;56.90
24326;DHT22;12448;45.532;5.290;2022-07-23T14:09:38;28.40;56.70
24326;DHT22;12448;45.532;5.290;2022-07-23T14:12:04;28.40;56.00
24326;DHT22;12448;45.532;5.290;2022-07-23T14:14:30;28.30;55.70
24326;DHT22;12448;45.532;5.290;2022-07-23T14:16:56;28.30;55.90
24326;DHT22;12448;45.532;5.290;2022-07-23T14:19:22;28.30;56.20
24326;DHT22;12448;45.532;5.290;2022-07-23T14:21:48;28.20;56.30
24326;DHT22;12448;45.532;5.290;2022-07-23T14:24:14;28.20;56.50
24326;DHT22;12448;45.532;5.290;2022-07-23T14:26:40;28.20;57.20
24326;DHT22;12448;45.532;5.290;2022-07-23T14:29:06;28.20;56.40
24326;DHT22;12448;45.532;5.290;2022-07-23T14:31:31;28.30;56.30
24326;DHT22;12448;45.532;5.290;2022-07-23T14:33:57;28.30;56.50
24326;DHT22;12448;45.532;5.290;2022-07-23T14:36:24;28.30;56.30
24326;DHT22;12448;45.532;5.290;2022-07-23T14:38:50;28.30;56.70
24326;DHT22;12448;45.532;5.290;2022-07-23T14:41:16;28.50;56.70
24326;DHT22;12448;45.532;5.290;2022-07-23T14:43:42;28.50;56.20
24326;DHT22;12448;45.532;5.290;2022-07-23T14:46:08;28.70;55.70
24326;DHT22;12448;45.532;5.290;2022-07-23T14:48:34;28.80;55.60
24326;DHT22;12448;45.532;5.290;2022-07-23T14:50:59;28.80;55.50
24326;DHT22;12448;45.532;5.290;2022-07-23T14:53:25;28.80;54.70
24326;DHT22;12448;45.532;5.290;2022-07-23T14:55:51;28.80;55.10
24326;DHT22;12448;45.532;5.290;2022-07-23T14:58:16;28.80;54.60
24326;DHT22;12448;45.532;5.290;2022-07-23T15:00:43;28.80;54.20
24326;DHT22;12448;45.532;5.290;2022-07-23T15:03:08;28.70;54.40
24326;DHT22;12448;45.532;5.290;2022-07-23T15:05:34;28.60;54.80
24326;DHT22;12448;45.532;5.290;2022-07-23T15:08:00;28.50;55.00
24326;DHT22;12448;45.532;5.290;2022-07-23T15:10:25;28.40;54.80
24326;DHT22;12448;45.532;5.290;2022-07-23T15:12:51;28.40;55.00
24326;DHT22;12448;45.532;5.290;2022-07-23T15:15:17;28.40;54.70
24326;DHT22;12448;45.532;5.290;2022-07-23T15:17:43;28.40;54.20
24326;DHT22;12448;45.532;5.290;2022-07-23T15:20:10;28.50;54.30
24326;DHT22;12448;45.532;5.290;2022-07-23T15:22:35;28.50;54.40
24326;DHT22;12448;45.532;5.290;2022-07-23T15:25:01;28.60;54.20
24326;DHT22;12448;45.532;5.290;2022-07-23T15:27:27;28.70;54.00
24326;DHT22;12448;45.532;5.290;2022-07-23T15:29:53;28.80;53.50
24326;DHT22;12448;45.532;5.290;2022-07-23T15:32:18;28.80;53.70
24326;DHT22;12448;45.532;5.290;2022-07-23T15:34:44;28.70;53.60
24326;DHT22;12448;45.532;5.290;2022-07-23T15:37:10;28.50;53.50
24326;DHT22;12448;45.532;5.290;2022-07-23T15:39:35;28.60;53.70
24326;DHT22;12448;45.532;5.290;2022-07-23T15:42:02;28.50;53.20
24326;DHT22;12448;45.532;5.290;2022-07-23T15:44:28;28.40;53.30
24326;DHT22;12448;45.532;5.290;2022-07-23T15:46:54;28.40;53.40
24326;DHT22;12448;45.532;5.290;2022-07-23T15:49:21;28.30;53.30
24326;DHT22;12448;45.532;5.290;2022-07-23T15:51:47;28.40;53.50
24326;DHT22;12448;45.532;5.290;2022-07-23T15:54:12;28.30;53.20
24326;DHT22;12448;45.532;5.290;2022-07-23T15:56:38;28.40;53.70
24326;DHT22;12448;45.532;5.290;2022-07-23T15:59:04;28.40;53.60
24326;DHT22;12448;45.532;5.290;2022-07-23T16:01:29;28.50;53.30
24326;DHT22;12448;45.532;5.290;2022-07-23T16:03:56;28.50;53.10
24326;DHT22;12448;45.532;5.290;2022-07-23T16:06:25;28.60;53.30
24326;DHT22;12448;45.532;5.290;2022-07-23T16:08:51;28.70;53.40
24326;DHT22;12448;45.532;5.290;2022-07-23T16:11:17;28.70;52.70
24326;DHT22;12448;45.532;5.290;2022-07-23T16:13:43;28.60;52.90
24326;DHT22;12448;45.532;5.290;2022-07-23T16:16:10;28.60;53.20
24326;DHT22;12448;45.532;5.290;2022-07-23T16:18:37;28.70;53.50
24326;DHT22;12448;45.532;5.290;2022-07-23T16:21:03;28.60;53.30
24326;DHT22;12448;45.532;5.290;2022-07-23T16:23:29;28.70;53.60
24326;DHT22;12448;45.532;5.290;2022-07-23T16:25:54;28.70;53.40
24326;DHT22;12448;45.532;5.290;2022-07-23T16:28:20;28.70;53.10
24326;DHT22;12448;45.532;5.290;2022-07-23T16:30:45;28.70;53.10
24326;DHT22;12448;45.532;5.290;2022-07-23T16:33:11;28.70;52.70
24326;DHT22;12448;45.532;5.290;2022-07-23T16:35:37;28.60;52.90
24326;DHT22;12448;45.532;5.290;2022-07-23T16:38:03;28.60;53.30